Portada
METAR-TAF:

METAR-TAF

Aeroports :

Masqat, Oman

latitud: 23-35N, longitud: 058-17E, altitud: 8 m

Observació

L'informe es va fer fa 22 minuts, a les 21:50 UTC
Vent 3 kt del Est
Temperatura 24°C
Humitat 89%
Pressió 1011 hPa
Visibilitat: 9000 m

METAR: OOMS 262150Z 09003KT 9000 NSC 24/22 Q1011 NOSIG

Hora: 02:12 (22:12 UTC)

Pronòstic

L'informe es va fer fa 5 hores i 12 minuts, a les 17:00 UTC
Pronòstic vàlid del 26 a les 18 UTC al 27 a les 24 UTC
Vent 8 kt del Oest
Visibilitat: 7000 m
Núvols disperses a una alçada de 3000 ft
Probabilitat 30% :
Temporalment
l' 26 a les 23 UTC al 27 a les 04 UTC
Visibilitat: 4000 m
Cel ennuvolat a una alçada de 1500 ft
boirina
Evolucionant progressivament
l' 27 a les 06 UTC al 27 a les 08 UTC
Vent 12 kt del Nord/Nord-Oest
Evolucionant progressivament
l' 27 a les 16 UTC al 27 a les 18 UTC
Vent 8 kt del Oest

TAF: OOMS 261700Z 2618/2724 26008KT 7000 SCT030 PROB30 TEMPO 2623/2704 4000 BR BKN015 BECMG 2706/2708 34012KT BECMG 2716/2718 28008KT

Observacions i pronòstics meteorològics de més de 4000 aeroports (METAR i TAF).

Les estacions disponibles són els punts grocs i vermells al mapa.

Posi el ratolí al punt desitjat per veure el nom de l'estació.

Feu clic per veure les observacions i els pronòstics meteorològics.

Per canviar el mapa: feu clic els botons verds amb una creu de color negre per apropar; al botó verd amb un guió per allunyar la imatge; o en les fletxes verdes per a mapes adjacents.


METAR-TAF: